Time;durP1;ratioP1;P1;durP2;ratioP2;P2;SDS_P1;SDS_P2;PMS_P1;PMS_P2;Temp;Humidity;BMP_temperature;BMP_pressure;BME280_temperature;BME280_humidity;BME280_pressure;Samples;Min_cycle;Max_cycle;Signal;HPM_P1;HPM_P2
2022/11/09 00:00:08;;;;;;;5.68;1.45;;;;;;;10.88;100.00;98005.16;5031966;28;20053;-87
2022/11/09 00:02:35;;;;;;;3.88;1.35;;;;;;;10.70;100.00;98014.53;5031837;28;20053;-88
2022/11/09 00:05:09;;;;;;;6.25;1.60;;;;;;;10.69;100.00;98016.28;5030832;28;20488;-87
2022/11/09 00:07:35;;;;;;;4.25;1.60;;;;;;;10.50;100.00;98014.34;5029791;28;20049;-87
2022/11/09 00:10:02;;;;;;;6.35;1.70;;;;;;;10.85;100.00;98022.91;5027289;28;20127;-87
2022/11/09 00:12:29;;;;;;;7.20;1.95;;;;;;;10.66;100.00;98023.56;5023311;28;20407;-87
2022/11/09 00:14:56;;;;;;;3.42;1.48;;;;;;;10.44;100.00;98027.91;5031347;28;20088;-87
2022/11/09 00:17:23;;;;;;;7.28;1.52;;;;;;;10.82;100.00;98043.13;5031338;28;20061;-87
2022/11/09 00:19:49;;;;;;;10.55;3.25;;;;;;;10.78;100.00;98031.25;5029485;28;20193;-87
2022/11/09 00:22:16;;;;;;;5.05;1.50;;;;;;;10.77;100.00;98026.16;5030658;28;20126;-87
2022/11/09 00:24:43;;;;;;;5.18;1.63;;;;;;;10.84;100.00;98037.78;5031679;28;20045;-87
2022/11/09 00:27:10;;;;;;;5.28;1.55;;;;;;;10.67;100.00;98048.78;5030913;28;20488;-87
2022/11/09 00:29:42;;;;;;;6.10;1.70;;;;;;;10.41;100.00;98018.53;5043231;28;20095;-88
2022/11/09 00:32:09;;;;;;;5.32;1.40;;;;;;;10.53;100.00;98018.50;5029461;28;20050;-88
2022/11/09 00:34:36;;;;;;;8.10;1.58;;;;;;;10.54;100.00;98039.31;5031419;28;20115;-88
2022/11/09 00:37:03;;;;;;;6.43;1.65;;;;;;;10.14;100.00;98011.06;5031499;28;20069;-88
2022/11/09 00:39:29;;;;;;;6.80;1.65;;;;;;;10.26;100.00;98033.63;5025609;28;20049;-87
2022/11/09 00:41:56;;;;;;;5.38;1.52;;;;;;;10.54;100.00;98041.91;5029518;28;20053;-87
2022/11/09 00:44:23;;;;;;;4.65;1.27;;;;;;;10.58;100.00;98047.75;5029488;28;20415;-87
2022/11/09 00:46:49;;;;;;;5.60;1.42;;;;;;;10.21;100.00;98027.91;5029436;28;20133;-87
2022/11/09 00:49:16;;;;;;;6.85;1.70;;;;;;;10.19;100.00;98034.25;5028703;28;20065;-86
2022/11/09 00:51:43;;;;;;;7.05;1.60;;;;;;;10.27;100.00;98064.06;5028689;28;20587;-87
2022/11/09 00:54:10;;;;;;;10.02;2.22;;;;;;;10.18;100.00;98063.94;5029699;28;20076;-86
2022/11/09 00:56:36;;;;;;;4.47;1.65;;;;;;;10.28;100.00;98064.88;5030417;28;20050;-86
2022/11/09 00:59:03;;;;;;;6.20;1.60;;;;;;;10.12;100.00;98061.81;5030109;28;20434;-86
2022/11/09 01:01:30;;;;;;;7.60;1.85;;;;;;;10.14;100.00;98055.50;5025784;28;20108;-86
2022/11/09 01:03:57;;;;;;;7.45;1.88;;;;;;;10.32;100.00;98070.72;5018508;28;20050;-87
2022/11/09 01:06:24;;;;;;;7.10;1.73;;;;;;;10.31;100.00;98075.16;5029096;28;20047;-86
2022/11/09 01:08:52;;;;;;;6.03;1.70;;;;;;;10.45;100.00;98080.09;5030634;28;20079;-87
2022/11/09 01:11:21;;;;;;;5.32;1.60;;;;;;;10.22;100.00;98079.28;5028904;28;20061;-87
2022/11/09 01:13:48;;;;;;;7.22;1.85;;;;;;;10.05;100.00;98028.31;5030049;28;20057;-87
2022/11/09 01:16:18;;;;;;;5.32;1.60;;;;;;;10.34;100.00;98074.91;5030426;28;20049;-87
2022/11/09 01:18:45;;;;;;;4.63;1.55;;;;;;;10.62;100.00;98093.63;5030654;28;20053;-87
2022/11/09 01:21:14;;;;;;;6.53;2.40;;;;;;;10.48;100.00;98091.28;5028947;28;20384;-86
2022/11/09 01:23:44;;;;;;;5.47;1.63;;;;;;;10.39;100.00;98096.31;5030417;28;20053;-86
2022/11/09 01:26:12;;;;;;;4.50;1.50;;;;;;;10.85;100.00;98107.47;5026565;28;20046;-88
2022/11/09 01:28:40;;;;;;;6.47;1.83;;;;;;;10.49;100.00;98117.31;5015594;28;20455;-87
2022/11/09 01:31:16;;;;;;;5.75;1.67;;;;;;;10.34;100.00;98095.84;5026356;28;20100;-88
2022/11/09 01:33:43;;;;;;;6.35;1.63;;;;;;;10.55;100.00;98105.53;5034661;28;20053;-87
2022/11/09 01:36:19;;;;;;;4.68;1.52;;;;;;;10.45;100.00;98114.13;5025389;28;20465;-86
2022/11/09 01:38:47;;;;;;;4.47;1.80;;;;;;;10.59;100.00;98113.03;5034749;28;20045;-88
2022/11/09 01:41:17;;;;;;;7.93;2.10;;;;;;;10.36;100.00;98111.41;5024249;28;20054;-86
2022/11/09 01:43:45;;;;;;;5.15;1.58;;;;;;;10.45;100.00;98108.06;5033904;28;20103;-86
2022/11/09 01:46:29;;;;;;;9.80;2.20;;;;;;;10.45;100.00;98110.69;5034315;28;20099;-87
2022/11/09 01:48:59;;;;;;;4.32;1.67;;;;;;;10.36;100.00;98090.47;5034329;28;20053;-87
2022/11/09 01:51:44;;;;;;;5.22;1.70;;;;;;;10.35;100.00;98117.59;5032720;28;20104;-88
2022/11/09 01:54:18;;;;;;;4.95;1.77;;;;;;;10.29;100.00;98112.78;5034542;28;20058;-86
2022/11/09 01:56:48;;;;;;;5.57;1.95;;;;;;;10.24;100.00;98100.09;5033805;28;20076;-88
2022/11/09 01:59:19;;;;;;;4.50;1.60;;;;;;;10.26;100.00;98117.31;5034314;28;20499;-87
2022/11/09 02:01:47;;;;;;;9.43;2.35;;;;;;;10.20;100.00;98117.78;5032387;28;20057;-86
2022/11/09 02:04:47;;;;;;;5.45;1.80;;;;;;;10.27;100.00;98111.13;5026606;28;20415;-87
2022/11/09 02:07:14;;;;;;;5.53;2.10;;;;;;;10.35;100.00;98101.88;5018306;28;20376;-87
2022/11/09 02:10:05;;;;;;;5.65;1.90;;;;;;;10.32;100.00;98110.78;5031193;28;20059;-87
2022/11/09 02:12:34;;;;;;;6.22;1.80;;;;;;;9.89;100.00;98088.78;5033387;28;20178;-87
2022/11/09 02:15:04;;;;;;;6.28;2.03;;;;;;;10.05;100.00;98096.28;5030477;28;20043;-88
2022/11/09 02:17:31;;;;;;;4.10;1.70;;;;;;;10.19;100.00;98102.22;5034019;28;20045;-88
2022/11/09 02:19:58;;;;;;;7.30;1.90;;;;;;;10.11;100.00;98125.50;5030020;28;20053;-88
2022/11/09 02:22:25;;;;;;;10.02;1.98;;;;;;;9.94;100.00;98116.38;5033661;28;20103;-88
2022/11/09 02:24:52;;;;;;;4.97;1.75;;;;;;;10.02;100.00;98121.81;5033528;28;20675;-88
2022/11/09 02:27:22;;;;;;;7.55;2.10;;;;;;;9.89;100.00;98132.38;5034279;28;20043;-88
2022/11/09 02:29:50;;;;;;;5.45;1.80;;;;;;;10.00;100.00;98137.63;5033563;28;20253;-89
2022/11/09 02:32:23;;;;;;;8.00;3.15;;;;;;;10.19;100.00;98139.66;5033813;28;20046;-88
2022/11/09 02:34:50;;;;;;;4.85;1.70;;;;;;;10.14;100.00;98136.56;5031055;28;20062;-88
2022/11/09 02:37:39;;;;;;;8.05;1.90;;;;;;;10.07;100.00;98137.97;5033204;28;20046;-88
2022/11/09 02:40:44;;;;;;;6.05;1.60;;;;;;;10.01;100.00;98135.84;5033507;28;20475;-89
2022/11/09 02:43:13;;;;;;;6.65;2.47;;;;;;;9.75;100.00;98132.59;5018769;28;20045;-87
2022/11/09 02:45:40;;;;;;;5.15;1.95;;;;;;;9.77;100.00;98141.97;5031102;28;20050;-88
2022/11/09 02:48:07;;;;;;;6.95;1.40;;;;;;;9.88;100.00;98143.81;5034481;28;20099;-88
2022/11/09 02:50:35;;;;;;;9.00;1.90;;;;;;;9.90;100.00;98154.97;5027298;28;20064;-88
2022/11/09 02:53:03;;;;;;;4.47;1.98;;;;;;;9.64;100.00;98121.19;5032583;28;20045;-87
2022/11/09 02:55:29;;;;;;;6.93;2.03;;;;;;;9.96;100.00;98151.88;5032768;28;20056;-88
2022/11/09 02:57:56;;;;;;;8.52;2.42;;;;;;;10.03;100.00;98149.63;5032356;28;20095;-88
2022/11/09 03:00:26;;;;;;;5.53;1.80;;;;;;;10.01;100.00;98147.13;5031371;28;20095;-88
2022/11/09 03:02:53;;;;;;;6.13;1.70;;;;;;;10.15;100.00;98145.25;5027077;28;20120;-87
2022/11/09 03:05:20;;;;;;;6.22;1.60;;;;;;;10.08;100.00;98157.97;5031187;28;20045;-88
2022/11/09 03:07:47;;;;;;;4.35;1.65;;;;;;;10.04;100.00;98152.13;5032676;28;20045;-88
2022/11/09 03:10:13;;;;;;;4.13;1.40;;;;;;;10.01;100.00;98146.31;5024290;28;20053;-87
2022/11/09 03:12:40;;;;;;;5.05;1.75;;;;;;;9.93;100.00;98149.50;5027240;28;20061;-87
2022/11/09 03:15:08;;;;;;;4.88;1.90;;;;;;;9.75;100.00;98149.13;5032454;28;20058;-87
2022/11/09 03:17:35;;;;;;;11.48;1.98;;;;;;;9.85;100.00;98147.47;5032249;28;20049;-86
2022/11/09 03:20:02;;;;;;;4.82;1.85;;;;;;;9.75;100.00;98156.13;5032455;28;20777;-86
2022/11/09 03:22:29;;;;;;;5.80;2.20;;;;;;;9.80;100.00;98152.22;5032741;28;20045;-87
2022/11/09 03:24:55;;;;;;;5.65;2.10;;;;;;;9.82;100.00;98142.47;5031915;28;20050;-88
2022/11/09 03:27:22;;;;;;;4.68;1.70;;;;;;;9.80;100.00;98144.38;5032383;28;20053;-87
2022/11/09 03:29:49;;;;;;;9.82;2.55;;;;;;;9.67;100.00;98156.72;5031045;28;20045;-87
2022/11/09 03:32:16;;;;;;;4.20;1.65;;;;;;;9.71;100.00;98137.22;5030767;28;20049;-87
2022/11/09 03:34:42;;;;;;;5.00;1.80;;;;;;;9.67;100.00;98144.47;5031841;28;20049;-87
2022/11/09 03:37:09;;;;;;;6.43;1.70;;;;;;;9.73;100.00;98137.13;5031422;28;20408;-86
2022/11/09 03:39:36;;;;;;;7.20;1.92;;;;;;;9.98;100.00;98170.06;5031693;28;20049;-87
2022/11/09 03:42:03;;;;;;;6.53;1.60;;;;;;;9.82;100.00;98152.91;5027456;28;20415;-86
2022/11/09 03:44:30;;;;;;;4.07;1.38;;;;;;;9.93;100.00;98159.94;5042427;28;20412;-87
2022/11/09 03:46:57;;;;;;;6.68;1.80;;;;;;;9.90;100.00;98154.97;5011919;28;20107;-86
2022/11/09 03:49:24;;;;;;;3.25;1.30;;;;;;;10.04;100.00;98159.97;5026796;28;20092;-87
2022/11/09 03:51:50;;;;;;;3.35;1.15;;;;;;;10.00;100.00;98162.94;5031151;28;20475;-87
2022/11/09 03:54:17;;;;;;;3.38;1.38;;;;;;;9.95;100.00;98168.53;5031733;28;20107;-87
2022/11/09 03:56:44;;;;;;;3.55;1.33;;;;;;;10.00;100.00;98181.22;5031327;28;20454;-88
2022/11/09 03:59:11;;;;;;;3.88;1.40;;;;;;;10.02;100.00;98182.81;5031477;28;20115;-86
2022/11/09 04:01:37;;;;;;;3.97;1.88;;;;;;;10.00;100.00;98197.75;5029162;28;20050;-88
2022/11/09 04:04:04;;;;;;;3.03;1.25;;;;;;;9.95;100.00;98192.06;5032089;28;20103;-88
2022/11/09 04:06:31;;;;;;;6.47;1.48;;;;;;;9.88;100.00;98196.09;5031954;28;20123;-88
2022/11/09 04:08:58;;;;;;;5.18;1.40;;;;;;;9.82;100.00;98197.34;5021210;28;20058;-87
2022/11/09 04:11:25;;;;;;;4.22;1.20;;;;;;;9.79;100.00;98199.38;5027153;28;20053;-87
2022/11/09 04:13:53;;;;;;;7.10;1.70;;;;;;;9.90;100.00;98196.78;5016580;28;20050;-87
2022/11/09 04:16:19;;;;;;;3.22;1.20;;;;;;;9.67;100.00;98135.81;5024751;28;20594;-87
2022/11/09 04:18:46;;;;;;;2.72;1.23;;;;;;;9.91;100.00;98168.88;5029125;28;20046;-86
2022/11/09 04:21:13;;;;;;;2.67;1.20;;;;;;;10.08;100.00;98184.94;5016770;28;20058;-87
2022/11/09 04:23:40;;;;;;;5.97;1.20;;;;;;;10.09;100.00;98188.38;5020473;28;20053;-87
2022/11/09 04:26:07;;;;;;;5.10;1.70;;;;;;;9.93;100.00;98199.16;5031097;28;20099;-86
2022/11/09 04:28:33;;;;;;;4.03;1.30;;;;;;;9.92;100.00;98168.75;5027760;28;20476;-88
2022/11/09 04:31:01;;;;;;;9.73;1.83;;;;;;;9.64;100.00;98185.69;5024630;28;20053;-87
2022/11/09 04:33:28;;;;;;;4.28;1.83;;;;;;;9.74;100.00;98199.72;5028978;28;20057;-87
2022/11/09 04:35:59;;;;;;;5.80;1.48;;;;;;;10.06;100.00;98235.69;5030602;28;20059;-86
2022/11/09 04:38:26;;;;;;;6.93;1.60;;;;;;;10.11;100.00;98223.09;5030594;28;20061;-87
2022/11/09 04:40:53;;;;;;;5.70;1.73;;;;;;;10.13;100.00;98226.44;5029995;28;20139;-87
2022/11/09 04:43:19;;;;;;;5.18;1.52;;;;;;;9.79;100.00;98233.34;5026143;28;20478;-87
2022/11/09 04:45:46;;;;;;;11.88;1.88;;;;;;;9.90;100.00;98238.63;5026717;28;20506;-88
2022/11/09 04:48:13;;;;;;;6.55;1.90;;;;;;;9.99;100.00;98237.91;5031091;28;20046;-88
2022/11/09 04:50:40;;;;;;;5.13;1.70;;;;;;;10.25;100.00;98250.78;5017896;28;20455;-87
2022/11/09 04:53:12;;;;;;;5.05;1.50;;;;;;;10.34;100.00;98258.00;5019794;28;20056;-88
2022/11/09 04:55:39;;;;;;;6.50;1.92;;;;;;;10.37;100.00;98262.97;5028003;28;20419;-87
2022/11/09 04:58:07;;;;;;;6.35;2.05;;;;;;;10.40;100.00;98269.78;5022599;28;20095;-87
2022/11/09 05:00:35;;;;;;;4.95;1.85;;;;;;;10.31;100.00;98271.28;5025973;28;20107;-87
2022/11/09 05:03:03;;;;;;;3.38;1.40;;;;;;;10.40;100.00;98281.06;5021751;28;20045;-88
2022/11/09 05:05:32;;;;;;;8.35;1.88;;;;;;;10.37;100.00;98267.38;5030687;28;20054;-88
2022/11/09 05:07:59;;;;;;;6.43;1.65;;;;;;;10.37;100.00;98259.53;5026302;28;20049;-87
2022/11/09 05:10:26;;;;;;;4.75;1.98;;;;;;;10.49;100.00;98276.91;5019040;28;20629;-88
2022/11/09 05:13:00;;;;;;;5.18;1.45;;;;;;;10.39;100.00;98247.16;5032014;28;20549;-88
2022/11/09 05:15:27;;;;;;;4.35;1.50;;;;;;;10.42;100.00;98276.53;5021820;28;20510;-88
2022/11/09 05:17:54;;;;;;;3.70;1.58;;;;;;;10.67;100.00;98284.31;5025870;28;20046;-88
2022/11/09 05:20:22;;;;;;;5.45;1.50;;;;;;;10.55;100.00;98291.28;5019866;28;20050;-88
2022/11/09 05:25:34;;;;;;;6.80;1.83;;;;;;;10.44;100.00;98310.44;5030548;28;20099;-87
2022/11/09 05:28:01;;;;;;;4.72;1.55;;;;;;;10.46;100.00;98308.53;5030633;28;20108;-86
2022/11/09 05:30:27;;;;;;;3.83;1.23;;;;;;;10.38;100.00;98282.13;5027738;28;20123;-87
2022/11/09 05:32:54;;;;;;;4.25;1.40;;;;;;;10.39;100.00;98299.47;5024786;28;20053;-87
2022/11/09 05:35:21;;;;;;;4.97;1.45;;;;;;;10.17;100.00;98303.69;5026888;28;20389;-87
2022/11/09 05:37:49;;;;;;;5.60;1.65;;;;;;;10.38;100.00;98309.13;5010773;28;20053;-87
2022/11/09 05:40:17;;;;;;;5.03;1.52;;;;;;;10.06;100.00;98280.13;5027649;28;20045;-88
2022/11/09 05:42:44;;;;;;;5.10;1.50;;;;;;;10.04;100.00;98269.78;5029550;28;20053;-87
2022/11/09 05:45:16;;;;;;;5.10;1.70;;;;;;;10.12;100.00;98323.28;5030086;28;20049;-87
2022/11/09 05:48:03;;;;;;;4.72;1.42;;;;;;;10.25;100.00;98326.63;5028774;28;20073;-88
2022/11/09 05:50:30;;;;;;;2.60;1.20;;;;;;;10.34;100.00;98331.22;5030025;28;20087;-88
2022/11/09 05:53:01;;;;;;;4.72;1.20;;;;;;;10.47;100.00;98344.22;5029919;28;20050;-87
2022/11/09 05:55:27;;;;;;;5.07;1.52;;;;;;;9.97;100.00;98333.94;5030019;28;20087;-88
2022/11/09 05:57:55;;;;;;;5.32;1.40;;;;;;;10.34;100.00;98352.16;5025698;28;20041;-88
2022/11/09 06:00:22;;;;;;;5.65;1.80;;;;;;;10.38;100.00;98358.00;5028795;28;20068;-87
2022/11/09 06:02:49;;;;;;;3.45;1.30;;;;;;;10.42;100.00;98356.81;5029935;28;20052;-88
2022/11/09 06:05:16;;;;;;;3.95;1.33;;;;;;;10.34;100.00;98359.16;5018815;28;20497;-88
2022/11/09 06:07:43;;;;;;;6.10;1.55;;;;;;;10.09;100.00;98366.16;5029506;28;20049;-88
2022/11/09 06:10:10;;;;;;;4.32;1.30;;;;;;;10.08;100.00;98349.66;5029256;28;20046;-87
2022/11/09 06:12:37;;;;;;;4.85;1.17;;;;;;;10.24;100.00;98372.88;5027312;28;20062;-87
2022/11/09 06:15:04;;;;;;;4.53;1.50;;;;;;;9.95;100.00;98366.34;5029513;28;20076;-87
2022/11/09 06:17:31;;;;;;;4.07;1.50;;;;;;;10.19;100.00;98379.41;5029767;28;20488;-86
2022/11/09 06:19:58;;;;;;;3.38;1.30;;;;;;;10.42;100.00;98390.81;5031320;28;20541;-87
2022/11/09 06:22:24;;;;;;;6.50;1.50;;;;;;;10.11;100.00;98353.84;5032307;28;20046;-87
2022/11/09 06:24:51;;;;;;;2.88;1.17;;;;;;;10.23;100.00;98363.38;5029961;28;20326;-88
2022/11/09 06:27:18;;;;;;;3.17;1.27;;;;;;;10.50;100.00;98400.69;5034257;28;20049;-93
2022/11/09 06:29:45;;;;;;;5.28;1.33;;;;;;;10.41;100.00;98396.97;5034826;28;20103;-93
2022/11/09 06:32:11;;;;;;;3.10;1.35;;;;;;;10.22;100.00;98363.50;5025625;28;20046;-90
2022/11/09 06:34:38;;;;;;;6.85;1.35;;;;;;;10.24;100.00;98379.91;5019224;28;20055;-94
2022/11/09 06:37:05;;;;;;;4.20;1.20;;;;;;;10.22;100.00;98372.16;5025790;28;20421;-93
2022/11/09 06:39:31;;;;;;;3.92;1.10;;;;;;;10.17;100.00;98378.69;5036497;28;20061;-92
2022/11/09 06:41:59;;;;;;;2.90;1.17;;;;;;;10.39;100.00;98404.97;5019688;28;20054;-89
2022/11/09 06:44:26;;;;;;;2.75;1.02;;;;;;;10.38;100.00;98384.97;5041294;28;20065;-88
2022/11/09 06:46:52;;;;;;;4.22;1.38;;;;;;;10.31;100.00;98383.75;5031281;28;20607;-87
2022/11/09 06:49:19;;;;;;;5.50;1.55;;;;;;;10.41;100.00;98402.22;5027527;28;21236;-87
2022/11/09 06:51:46;;;;;;;5.10;1.42;;;;;;;10.56;100.00;98414.16;5028574;28;20455;-89
2022/11/09 06:54:13;;;;;;;2.47;1.13;;;;;;;10.76;100.00;98428.38;5028309;28;20483;-88
2022/11/09 06:56:39;;;;;;;3.88;1.20;;;;;;;10.63;100.00;98409.31;5032017;28;20056;-87
2022/11/09 06:59:07;;;;;;;5.00;1.52;;;;;;;10.71;100.00;98420.06;5032165;28;20376;-89
2022/11/09 07:01:36;;;;;;;2.25;1.10;;;;;;;10.67;100.00;98410.75;5038934;28;20420;-89
2022/11/09 07:04:03;;;;;;;4.60;1.27;;;;;;;10.80;100.00;98429.81;5030892;28;20045;-88
2022/11/09 07:06:30;;;;;;;5.15;1.88;;;;;;;10.67;100.00;98410.75;5031665;28;20119;-87
2022/11/09 07:08:56;;;;;;;3.38;1.20;;;;;;;10.89;100.00;98427.44;5024001;28;20103;-87
2022/11/09 07:11:23;;;;;;;8.80;1.73;;;;;;;10.70;100.00;98428.00;5029321;28;20053;-88
2022/11/09 07:13:50;;;;;;;4.15;1.02;;;;;;;10.49;100.00;98417.34;5037672;28;20045;-88
2022/11/09 07:16:23;;;;;;;4.55;1.35;;;;;;;10.73;100.00;98433.84;5032138;28;20530;-89
2022/11/09 07:18:49;;;;;;;4.57;1.40;;;;;;;10.58;100.00;98438.44;5031130;28;20095;-89
2022/11/09 07:21:16;;;;;;;8.30;1.70;;;;;;;10.27;100.00;98442.47;5030796;28;20059;-89
2022/11/09 07:23:46;;;;;;;5.47;1.58;;;;;;;10.51;100.00;98441.63;5029028;28;20053;-89
2022/11/09 07:26:14;;;;;;;5.82;1.48;;;;;;;10.76;100.00;98456.31;5030501;28;20050;-89
2022/11/09 07:28:41;;;;;;;7.72;1.50;;;;;;;10.82;100.00;98458.50;5036922;28;20041;-89
2022/11/09 07:31:09;;;;;;;5.53;1.40;;;;;;;10.75;100.00;98438.97;5037506;28;20045;-88
2022/11/09 07:33:36;;;;;;;7.40;1.63;;;;;;;10.83;100.00;98449.69;5037169;28;20111;-89
2022/11/09 07:36:04;;;;;;;4.05;1.15;;;;;;;10.92;100.00;98450.78;5037487;28;20109;-89
2022/11/09 07:38:31;;;;;;;2.45;1.20;;;;;;;11.13;100.00;98484.97;5040330;28;20056;-89
2022/11/09 07:41:01;;;;;;;3.92;1.20;;;;;;;10.89;100.00;98453.63;5040571;28;20414;-87
2022/11/09 07:43:28;;;;;;;2.33;1.10;;;;;;;10.89;100.00;98451.84;5041386;28;20435;-88
2022/11/09 07:45:56;;;;;;;3.83;1.38;;;;;;;11.09;100.00;98480.94;5039529;28;20084;-89
2022/11/09 07:48:22;;;;;;;3.00;1.20;;;;;;;11.02;100.00;98488.41;5042992;28;20048;-88
2022/11/09 07:50:50;;;;;;;13.25;1.75;;;;;;;10.74;100.00;98459.06;5034566;28;20041;-89
2022/11/09 07:53:17;;;;;;;3.92;1.23;;;;;;;11.03;100.00;98500.56;5042765;28;20045;-89
2022/11/09 07:55:45;;;;;;;6.20;1.50;;;;;;;11.12;100.00;98499.88;5041381;28;20482;-89
2022/11/09 07:58:14;;;;;;;7.10;1.60;;;;;;;11.20;100.00;98515.00;5045320;28;20480;-89
2022/11/09 08:00:42;;;;;;;4.60;1.38;;;;;;;11.26;100.00;98506.69;5041120;28;20055;-88
2022/11/09 08:03:10;;;;;;;3.92;1.30;;;;;;;11.09;100.00;98475.69;5032536;28;20115;-88
2022/11/09 08:05:38;;;;;;;4.15;1.13;;;;;;;11.37;100.00;98518.97;5042373;28;20055;-88
2022/11/09 08:08:09;;;;;;;6.28;1.52;;;;;;;11.01;100.00;98490.22;5043574;28;20136;-88
2022/11/09 08:10:37;;;;;;;3.17;1.33;;;;;;;11.24;100.00;98523.47;5040790;28;20045;-88
2022/11/09 08:13:07;;;;;;;10.27;1.52;;;;;;;11.10;100.00;98459.03;5030429;28;20498;-88
2022/11/09 08:15:35;;;;;;;6.25;1.25;;;;;;;11.44;100.00;98508.84;5043125;28;20084;-88
2022/11/09 08:18:05;;;;;;;3.17;1.10;;;;;;;11.61;100.00;98448.09;5030044;28;20053;-87
2022/11/09 08:20:32;;;;;;;4.65;1.30;;;;;;;10.40;100.00;98547.06;5037572;28;20511;-89
2022/11/09 08:22:59;;;;;;;3.65;1.15;;;;;;;9.80;100.00;98551.22;5036845;28;20052;-87
2022/11/09 08:25:34;;;;;;;2.88;1.10;;;;;;;9.77;100.00;98565.34;5020435;28;20077;-85
2022/11/09 08:28:02;;;;;;;2.25;1.00;;;;;;;8.81;100.00;98443.00;5034703;28;20057;-87
2022/11/09 08:30:29;;;;;;;5.55;1.40;;;;;;;9.07;100.00;98480.41;5039839;28;20041;-87
2022/11/09 08:32:58;;;;;;;4.97;1.23;;;;;;;9.39;100.00;98541.84;5043029;28;20057;-88
2022/11/09 08:35:25;;;;;;;4.82;1.17;;;;;;;9.23;100.00;98515.94;5042531;28;20033;-88
2022/11/09 08:37:53;;;;;;;2.78;1.20;;;;;;;9.64;100.00;98577.59;5042883;28;20053;-87
2022/11/09 08:40:22;;;;;;;3.47;1.17;;;;;;;9.50;100.00;98560.22;5039815;28;20052;-88
2022/11/09 08:42:50;;;;;;;2.90;1.10;;;;;;;9.31;100.00;98535.38;5042733;28;20525;-87
2022/11/09 08:45:18;;;;;;;6.15;1.83;;;;;;;9.49;100.00;98574.22;5042865;28;20072;-88
2022/11/09 08:47:45;;;;;;;3.60;1.25;;;;;;;9.35;100.00;98542.97;5031959;28;20057;-88
2022/11/09 08:50:14;;;;;;;2.72;1.08;;;;;;;9.43;100.00;98549.34;5033561;28;20474;-89
2022/11/09 08:52:41;;;;;;;5.28;1.20;;;;;;;9.30;100.00;98548.53;5039383;28;20049;-88
2022/11/09 08:55:08;;;;;;;6.70;1.40;;;;;;;9.69;100.00;98615.50;5032755;28;20571;-88
2022/11/09 08:57:35;;;;;;;5.70;1.17;;;;;;;9.67;100.00;98585.22;5025752;28;20050;-89
2022/11/09 09:00:03;;;;;;;4.72;1.25;;;;;;;9.83;100.00;98621.59;5038241;28;20042;-88
2022/11/09 09:02:29;;;;;;;5.00;1.30;;;;;;;9.58;100.00;98580.59;5039241;28;20129;-89
2022/11/09 09:04:57;;;;;;;7.07;1.33;;;;;;;9.96;100.00;98627.66;5040945;28;20042;-87
2022/11/09 09:07:24;;;;;;;15.52;1.50;;;;;;;9.53;100.00;98570.47;5042639;28;20113;-88
2022/11/09 09:09:51;;;;;;;6.10;1.60;;;;;;;9.68;100.00;98587.72;5040986;28;20054;-88
2022/11/09 09:12:18;;;;;;;7.43;1.95;;;;;;;9.78;100.00;98608.00;5035117;28;20065;-89
2022/11/09 09:14:45;;;;;;;6.90;1.42;;;;;;;9.93;100.00;98640.91;5041880;28;20069;-86
2022/11/09 09:17:12;;;;;;;8.13;1.60;;;;;;;9.91;100.00;98639.34;5039329;28;20132;-88
2022/11/09 09:19:39;;;;;;;7.72;1.65;;;;;;;9.75;100.00;98632.56;5038641;28;20361;-87
2022/11/09 09:22:05;;;;;;;8.35;1.35;;;;;;;9.73;100.00;98638.84;5035958;28;20112;-89
2022/11/09 09:24:32;;;;;;;5.43;1.30;;;;;;;9.73;100.00;98620.53;5025997;28;20069;-88
2022/11/09 09:26:59;;;;;;;5.07;1.48;;;;;;;9.89;100.00;98632.44;5039482;28;20057;-88
2022/11/09 09:29:27;;;;;;;6.53;1.40;;;;;;;10.09;100.00;98674.69;5030034;28;20404;-89
2022/11/09 09:31:53;;;;;;;15.48;2.00;;;;;;;9.75;100.00;98652.63;5034471;28;20061;-89
2022/11/09 09:34:20;;;;;;;6.75;1.42;;;;;;;9.74;100.00;98628.28;5039110;28;20041;-89
2022/11/09 09:36:47;;;;;;;12.75;2.72;;;;;;;10.01;100.00;98672.63;5037309;28;20045;-89
2022/11/09 09:39:14;;;;;;;8.45;2.65;;;;;;;9.81;100.00;98641.75;5021593;28;20145;-89
2022/11/09 09:42:03;;;;;;;10.45;1.80;;;;;;;10.24;100.00;98676.25;5038256;28;20057;-89
2022/11/09 09:44:46;;;;;;;9.07;1.83;;;;;;;10.15;100.00;98679.53;5039746;28;20709;-88
2022/11/09 09:47:26;;;;;;;6.80;1.80;;;;;;;10.18;100.00;98689.78;5041052;28;20076;-88
2022/11/09 09:49:59;;;;;;;9.82;1.88;;;;;;;10.22;100.00;98700.84;5038917;28;20047;-89
2022/11/09 09:52:35;;;;;;;11.00;2.17;;;;;;;10.23;100.00;98698.16;5022609;28;20049;-89
2022/11/09 09:55:05;;;;;;;8.40;1.80;;;;;;;10.54;100.00;98706.50;5036151;28;20049;-89
2022/11/09 09:57:35;;;;;;;6.72;1.73;;;;;;;10.71;100.00;98696.63;5030133;28;20052;-88
2022/11/09 10:00:14;;;;;;;7.00;1.67;;;;;;;10.91;100.00;98710.94;5043338;28;20046;-89
2022/11/09 10:02:42;;;;;;;5.70;1.48;;;;;;;10.90;100.00;98702.22;5041389;28;20054;-87
2022/11/09 10:05:14;;;;;;;8.60;1.70;;;;;;;10.85;100.00;98693.88;5046390;28;20045;-87
2022/11/09 10:07:50;;;;;;;9.73;1.95;;;;;;;11.02;100.00;98697.91;5041749;28;20050;-89
2022/11/09 10:10:54;;;;;;;9.07;1.90;;;;;;;11.22;100.00;98717.41;5036555;28;20049;-87
2022/11/09 10:13:33;;;;;;;;;;;;;;;11.27;100.00;98723.16;5041652;28;20045;-88
2022/11/09 10:16:18;;;;;;;8.30;1.70;;;;;;;11.10;100.00;98692.97;5039696;28;19925;-88
2022/11/09 10:19:27;;;;;;;10.15;2.55;;;;;;;11.51;100.00;98728.41;5037138;28;20053;-88
2022/11/09 10:22:27;;;;;;;13.98;2.38;;;;;;;11.51;100.00;98733.63;5048967;28;20060;-88
2022/11/09 10:25:22;;;;;;;10.85;2.08;;;;;;;11.65;100.00;98735.25;5011899;28;20478;-88
2022/11/09 10:28:13;;;;;;;13.18;2.55;;;;;;;11.56;100.00;98735.91;5045851;28;20049;-88
2022/11/09 10:30:40;;;;;;;14.27;2.25;;;;;;;11.58;100.00;98737.47;5039176;28;20069;-89
2022/11/09 10:33:07;;;;;;;9.45;1.58;;;;;;;11.49;100.00;98718.97;5048081;28;20072;-89
2022/11/09 10:36:04;;;;;;;13.40;2.65;;;;;;;11.71;100.00;98755.75;5049118;28;20054;-88
2022/11/09 10:38:48;;;;;;;10.98;2.38;;;;;;;11.69;100.00;98731.44;5058785;28;20053;-88
2022/11/09 10:41:28;;;;;;;10.38;2.33;;;;;;;11.87;100.00;98754.63;5048886;28;20065;-88
2022/11/09 10:43:56;;;;;;;12.18;2.70;;;;;;;11.82;100.00;98748.88;5039567;28;20109;-88
2022/11/09 10:46:25;;;;;;;10.00;2.30;;;;;;;11.89;100.00;98756.16;5030143;28;20053;-89
2022/11/09 10:48:54;;;;;;;9.98;2.28;;;;;;;11.73;100.00;98732.88;5037570;28;20068;-89
2022/11/09 10:51:46;;;;;;;9.40;2.35;;;;;;;11.95;100.00;98726.91;5035631;28;20050;-89
2022/11/09 10:54:20;;;;;;;9.38;2.03;;;;;;;12.49;100.00;98788.41;5030908;28;20118;-89
2022/11/09 10:56:51;;;;;;;8.95;2.03;;;;;;;12.49;100.00;98792.84;5041396;28;20049;-88
2022/11/09 10:59:34;;;;;;;13.13;2.25;;;;;;;12.49;100.00;98793.66;5040102;28;20053;-89
2022/11/09 11:02:24;;;;;;;9.25;2.45;;;;;;;12.67;100.00;98804.53;5044564;28;20059;-88
2022/11/09 11:04:58;;;;;;;9.82;1.88;;;;;;;12.71;100.00;98811.25;5035251;28;20133;-89
2022/11/09 11:07:25;;;;;;;10.52;2.75;;;;;;;12.52;100.00;98796.06;5047012;28;20057;-88
2022/11/09 11:09:52;;;;;;;11.20;2.15;;;;;;;12.67;100.00;98796.66;5042101;28;20037;-87
2022/11/09 11:12:24;;;;;;;10.15;2.60;;;;;;;12.66;100.00;98792.38;5042053;28;20082;-87
2022/11/09 11:14:51;;;;;;;11.52;2.58;;;;;;;12.31;100.00;98790.66;5042336;28;20053;-86
2022/11/09 11:17:26;;;;;;;10.98;2.25;;;;;;;12.31;100.00;98806.41;5040866;28;20049;-89
2022/11/09 11:19:53;;;;;;;9.85;2.20;;;;;;;12.40;100.00;98778.63;5043070;28;20053;-87
2022/11/09 11:22:23;;;;;;;16.25;2.67;;;;;;;12.45;100.00;98813.22;5030456;28;20053;-88
2022/11/09 11:24:54;;;;;;;11.80;2.75;;;;;;;12.59;100.00;98812.19;5030864;28;20385;-87
2022/11/09 11:27:46;;;;;;;12.93;2.45;;;;;;;12.73;100.00;98775.19;5043992;28;20045;-86
2022/11/09 11:30:17;;;;;;;11.52;2.30;;;;;;;12.80;100.00;98820.22;5039081;28;20120;-86
2022/11/09 11:32:44;;;;;;;8.98;2.30;;;;;;;12.33;100.00;98765.13;5054512;28;20053;-86
2022/11/09 11:35:19;;;;;;;8.85;1.98;;;;;;;12.81;100.00;98815.78;5039565;28;20058;-88
2022/11/09 11:37:46;;;;;;;9.85;2.13;;;;;;;12.87;100.00;98817.91;5037725;28;20064;-88
2022/11/09 11:40:31;;;;;;;8.57;2.08;;;;;;;12.53;100.00;98757.50;5032698;28;20038;-86